createdAt,value
2018-06-22T00:01:07.259Z,2.40
2018-06-22T00:03:40.202Z,2.95
2018-06-22T00:06:13.148Z,2.35
2018-06-22T00:08:47.446Z,2.60
2018-06-22T00:11:18.192Z,2.90
2018-06-22T00:13:49.299Z,2.60
2018-06-22T00:16:20.783Z,2.05
2018-06-22T00:18:50.904Z,1.87
2018-06-22T00:21:24.834Z,2.08
2018-06-22T00:23:59.442Z,2.53
2018-06-22T00:26:30.807Z,2.45
2018-06-22T00:29:03.204Z,2.22
2018-06-22T00:31:36.403Z,2.85
2018-06-22T00:34:09.346Z,2.50
2018-06-22T00:36:43.835Z,2.42
2018-06-22T00:39:19.126Z,2.30
2018-06-22T00:41:54.711Z,2.45
2018-06-22T00:44:28.783Z,2.42
2018-06-22T00:47:04.254Z,2.85
2018-06-22T00:49:36.628Z,2.22
2018-06-22T00:52:09.133Z,2.30
2018-06-22T00:54:43.674Z,2.47
2018-06-22T00:57:13.735Z,2.67
2018-06-22T00:59:44.680Z,2.58
2018-06-22T01:02:14.864Z,2.62
2018-06-22T01:04:47.287Z,2.90
2018-06-22T01:07:20.852Z,2.80
2018-06-22T01:09:55.466Z,2.72
2018-06-22T01:12:28.419Z,2.25
2018-06-22T01:15:00.081Z,2.37
2018-06-22T01:17:33.594Z,2.33
2018-06-22T01:20:06.588Z,1.98
2018-06-22T01:22:39.781Z,2.50
2018-06-22T01:25:12.861Z,2.10
2018-06-22T01:27:43.892Z,2.78
2018-06-22T01:30:15.425Z,2.05
2018-06-22T01:32:49.194Z,2.30
2018-06-22T01:35:23.263Z,1.98
2018-06-22T01:37:56.488Z,2.45
2018-06-22T01:40:30.134Z,2.47
2018-06-22T01:43:04.802Z,1.70
2018-06-22T01:45:36.346Z,2.83
2018-06-22T01:48:09.392Z,2.47
2018-06-22T01:50:42.643Z,2.00
2018-06-22T01:53:14.267Z,1.98
2018-06-22T01:55:48.644Z,3.05
2018-06-22T01:58:20.804Z,2.08
2018-06-22T02:00:52.137Z,2.78
2018-06-22T02:03:25.184Z,2.37
2018-06-22T02:05:58.381Z,2.40
2018-06-22T02:08:30.613Z,1.80
2018-06-22T02:11:02.281Z,1.60
2018-06-22T02:13:36.020Z,2.15
2018-06-22T02:16:09.233Z,2.00
2018-06-22T02:18:43.686Z,1.90
2018-06-22T02:21:14.432Z,2.78
2018-06-22T02:23:46.029Z,3.05
2018-06-22T02:26:18.519Z,2.42
2018-06-22T02:28:51.733Z,2.40
2018-06-22T02:31:22.496Z,2.72
2018-06-22T02:33:55.409Z,2.70
2018-06-22T02:36:26.403Z,3.17
2018-06-22T02:39:00.994Z,2.60
2018-06-22T02:41:35.560Z,1.60
2018-06-22T02:44:08.609Z,2.45
2018-06-22T02:46:40.243Z,2.12
2018-06-22T02:49:10.748Z,2.10
2018-06-22T02:51:44.838Z,2.47
2018-06-22T02:54:17.996Z,2.12
2018-06-22T02:56:51.796Z,2.85
2018-06-22T02:59:25.843Z,2.35
2018-06-22T03:01:58.516Z,2.45
2018-06-22T03:04:30.199Z,2.58
2018-06-22T03:06:59.892Z,2.28
2018-06-22T03:09:31.179Z,2.33
2018-06-22T03:12:04.395Z,2.53
2018-06-22T03:14:35.662Z,1.95
2018-06-22T03:17:04.622Z,1.73
2018-06-22T03:19:37.802Z,2.37
2018-06-22T03:22:10.439Z,2.40
2018-06-22T03:24:43.437Z,2.70
2018-06-22T03:27:16.908Z,2.33
2018-06-22T03:29:50.089Z,2.10
2018-06-22T03:32:21.856Z,2.53
2018-06-22T03:34:56.409Z,2.87
2018-06-22T03:37:29.414Z,2.50
2018-06-22T03:40:03.846Z,2.97
2018-06-22T03:42:36.752Z,2.12
2018-06-22T03:45:09.711Z,2.72
2018-06-22T03:47:42.994Z,2.30
2018-06-22T03:50:16.064Z,2.45
2018-06-22T03:52:49.657Z,2.40
2018-06-22T03:55:23.631Z,2.45
2018-06-22T03:57:58.061Z,2.40
2018-06-22T04:00:28.963Z,2.47
2018-06-22T04:03:00.538Z,3.00
2018-06-22T04:05:33.759Z,2.50
2018-06-22T04:08:08.355Z,2.30
2018-06-22T04:10:42.900Z,2.90
2018-06-22T04:13:16.077Z,3.47
2018-06-22T04:15:46.143Z,2.25
2018-06-22T04:18:17.529Z,2.95
2018-06-22T04:20:50.632Z,2.10
2018-06-22T04:23:23.686Z,2.00
2018-06-22T04:25:55.979Z,2.47
2018-06-22T04:28:27.422Z,2.40
2018-06-22T04:30:59.213Z,2.80
2018-06-22T04:33:32.114Z,2.33
2018-06-22T04:36:03.742Z,2.47
2018-06-22T04:38:37.921Z,2.53
2018-06-22T04:41:12.266Z,3.00
2018-06-22T04:43:45.430Z,2.70
2018-06-22T04:46:19.884Z,2.53
2018-06-22T04:48:51.799Z,3.05
2018-06-22T04:51:26.367Z,2.40
2018-06-22T04:53:59.601Z,2.62
2018-06-22T04:56:33.116Z,2.60
2018-06-22T04:59:05.251Z,3.20
2018-06-22T05:01:38.413Z,2.75
2018-06-22T05:04:09.196Z,3.15
2018-06-22T05:06:42.388Z,2.58
2018-06-22T05:09:16.951Z,3.15
2018-06-22T05:11:49.967Z,2.97
2018-06-22T05:14:21.001Z,3.78
2018-06-22T05:16:54.037Z,2.85
2018-06-22T05:19:28.488Z,4.00
2018-06-22T05:22:00.612Z,3.50
2018-06-22T05:24:35.213Z,2.58
2018-06-22T05:27:08.203Z,3.28
2018-06-22T05:29:41.288Z,2.60
2018-06-22T05:32:12.954Z,3.55
2018-06-22T05:34:46.113Z,2.83
2018-06-22T05:37:20.585Z,3.95
2018-06-22T05:39:55.256Z,3.72
2018-06-22T05:42:27.011Z,3.97
2018-06-22T05:45:01.392Z,3.72
2018-06-22T05:47:35.965Z,3.72
2018-06-22T05:50:07.818Z,3.83
2018-06-22T05:52:41.049Z,3.55
2018-06-22T05:55:15.079Z,3.72
2018-06-22T05:57:46.591Z,3.22
2018-06-22T06:00:20.537Z,4.32
2018-06-22T06:02:53.439Z,3.65
2018-06-22T06:05:26.300Z,3.17
2018-06-22T06:07:58.688Z,3.28
2018-06-22T06:10:33.249Z,3.62
2018-06-22T06:13:08.117Z,4.45
2018-06-22T06:15:42.164Z,4.25
2018-06-22T06:18:16.337Z,4.00
2018-06-22T06:20:49.496Z,3.78
2018-06-22T06:23:22.698Z,3.15
2018-06-22T06:25:55.623Z,3.78
2018-06-22T06:28:27.965Z,3.72
2018-06-22T06:30:59.953Z,3.67
2018-06-22T06:33:33.668Z,3.72
2018-06-22T06:36:07.893Z,4.03
2018-06-22T06:38:42.468Z,3.97
2018-06-22T06:41:15.853Z,3.78
2018-06-22T06:43:49.405Z,4.25
2018-06-22T06:46:23.290Z,4.15
2018-06-22T06:48:56.749Z,4.68
2018-06-22T06:51:31.165Z,4.07
2018-06-22T06:54:04.400Z,4.18
2018-06-22T06:56:37.494Z,4.90
2018-06-22T06:59:09.154Z,4.72
2018-06-22T07:01:41.424Z,5.47
2018-06-22T07:04:12.149Z,4.70
2018-06-22T07:06:46.821Z,4.57
2018-06-22T07:09:20.069Z,4.43
2018-06-22T07:11:51.713Z,3.78
2018-06-22T07:14:24.884Z,4.10
2018-06-22T07:16:59.467Z,4.57
2018-06-22T07:19:32.488Z,4.05
2018-06-22T07:22:06.762Z,4.97
2018-06-22T07:24:41.411Z,3.92
2018-06-22T07:27:14.202Z,4.00
2018-06-22T07:29:47.133Z,4.15
2018-06-22T07:32:21.885Z,3.87
2018-06-22T07:34:53.320Z,4.95
2018-06-22T07:37:24.766Z,4.10
2018-06-22T07:39:58.500Z,3.62
2018-06-22T07:42:33.004Z,4.55
2018-06-22T07:45:04.728Z,3.85
2018-06-22T07:47:36.275Z,4.45
2018-06-22T07:50:09.291Z,3.75
2018-06-22T07:52:41.363Z,3.33
2018-06-22T07:55:13.938Z,3.22
2018-06-22T07:57:46.950Z,3.47
2018-06-22T08:00:20.123Z,2.90
2018-06-22T08:02:54.496Z,3.20
2018-06-22T08:05:27.344Z,3.72
2018-06-22T08:08:00.362Z,3.37
2018-06-22T08:10:30.474Z,3.92
2018-06-22T08:13:04.948Z,2.90
2018-06-22T08:15:38.809Z,2.58
2018-06-22T08:18:10.165Z,3.53
2018-06-22T08:20:43.155Z,2.60
2018-06-22T08:23:13.237Z,3.03
2018-06-22T08:25:43.933Z,2.70
2018-06-22T08:28:18.437Z,2.53
2018-06-22T08:30:53.078Z,2.95
2018-06-22T08:33:26.244Z,1.85
2018-06-22T08:36:00.739Z,2.33
2018-06-22T08:38:32.255Z,3.22
2018-06-22T08:41:05.546Z,2.60
2018-06-22T08:43:38.536Z,2.50
2018-06-22T08:46:11.822Z,2.30
2018-06-22T08:48:44.871Z,2.70
2018-06-22T08:51:18.367Z,2.35
2018-06-22T08:53:49.303Z,2.47
2018-06-22T08:56:20.801Z,3.30
2018-06-22T08:58:52.265Z,2.53
2018-06-22T09:01:22.383Z,3.10
2018-06-22T09:03:53.728Z,3.03
2018-06-22T09:06:26.699Z,3.35
2018-06-22T09:08:57.555Z,2.85
2018-06-22T09:11:30.516Z,3.08
2018-06-22T09:14:03.551Z,3.45
2018-06-22T09:16:36.538Z,3.20
2018-06-22T09:19:09.537Z,3.55
2018-06-22T09:21:42.821Z,3.92
2018-06-22T09:24:17.206Z,2.65
2018-06-22T09:26:50.873Z,2.50
2018-06-22T09:29:22.452Z,3.05
2018-06-22T09:31:53.715Z,3.40
2018-06-22T09:34:25.191Z,2.67
2018-06-22T09:36:58.071Z,2.90
2018-06-22T09:39:29.475Z,2.95
2018-06-22T09:42:03.222Z,2.55
2018-06-22T09:44:42.532Z,2.72
2018-06-22T09:47:15.467Z,2.55
2018-06-22T09:49:47.501Z,3.10
2018-06-22T09:52:19.935Z,2.40
2018-06-22T09:54:54.539Z,2.72
2018-06-22T09:57:25.915Z,3.42
2018-06-22T09:59:59.616Z,3.17
2018-06-22T10:02:31.121Z,3.30
2018-06-22T10:05:04.368Z,2.50
2018-06-22T10:07:35.688Z,2.58
2018-06-22T10:10:07.441Z,2.62
2018-06-22T10:12:40.729Z,2.60
2018-06-22T10:15:13.754Z,2.75
2018-06-22T10:17:47.189Z,2.80
2018-06-22T10:20:20.101Z,2.50
2018-06-22T10:22:53.972Z,2.20
2018-06-22T10:25:28.485Z,2.28
2018-06-22T10:28:00.169Z,2.70
2018-06-22T10:30:32.445Z,3.15
2018-06-22T10:33:03.174Z,2.62
2018-06-22T10:35:36.145Z,2.65
2018-06-22T10:38:10.520Z,2.72
2018-06-22T10:40:44.430Z,3.10
2018-06-22T10:43:20.579Z,1.98
2018-06-22T10:45:52.238Z,2.22
2018-06-22T10:48:25.428Z,1.90
2018-06-22T10:50:56.832Z,2.62
2018-06-22T10:53:28.338Z,2.35
2018-06-22T10:56:01.250Z,2.35
2018-06-22T10:58:34.265Z,2.10
2018-06-22T11:01:07.265Z,2.03
2018-06-22T11:03:37.197Z,1.83
2018-06-22T11:06:09.468Z,1.95
2018-06-22T11:08:42.984Z,2.17
2018-06-22T11:11:16.147Z,1.67
2018-06-22T11:13:46.267Z,2.00
2018-06-22T11:16:19.105Z,1.90
2018-06-22T11:18:51.214Z,1.40
2018-06-22T11:21:26.122Z,1.52
2018-06-22T11:24:00.096Z,1.10
2018-06-22T11:26:33.092Z,1.50
2018-06-22T11:29:06.122Z,1.50
2018-06-22T11:31:39.409Z,1.67
2018-06-22T11:34:11.028Z,1.95
2018-06-22T11:36:43.074Z,1.70
2018-06-22T11:39:16.256Z,1.60
2018-06-22T11:41:49.121Z,1.33
2018-06-22T11:44:23.425Z,1.98
2018-06-22T11:46:55.097Z,2.05
2018-06-22T11:49:29.722Z,2.05
2018-06-22T11:51:59.719Z,1.92
2018-06-22T11:54:34.204Z,1.83
2018-06-22T11:57:08.987Z,2.03
2018-06-22T11:59:42.161Z,1.45
2018-06-22T12:02:11.555Z,1.67
2018-06-22T12:04:44.526Z,2.15
2018-06-22T12:07:16.322Z,1.55
2018-06-22T12:09:47.709Z,1.50
2018-06-22T12:12:20.686Z,2.00
2018-06-22T12:14:55.416Z,2.35
2018-06-22T12:17:27.657Z,1.45
2018-06-22T12:20:00.763Z,1.70
2018-06-22T12:22:35.090Z,1.70
2018-06-22T12:25:08.212Z,1.77
2018-06-22T12:27:42.842Z,1.77
2018-06-22T12:30:13.233Z,1.60
2018-06-22T12:32:46.155Z,2.08
2018-06-22T12:35:19.065Z,1.90
2018-06-22T12:37:53.802Z,1.60
2018-06-22T12:40:26.669Z,1.83
2018-06-22T12:43:01.019Z,2.05
2018-06-22T12:45:31.019Z,1.80
2018-06-22T12:48:02.998Z,1.98
2018-06-22T12:50:34.536Z,1.58
2018-06-22T12:53:09.102Z,1.20
2018-06-22T12:55:42.148Z,1.80
2018-06-22T12:58:16.878Z,1.77
2018-06-22T13:00:51.389Z,1.75
2018-06-22T13:03:26.017Z,1.30
2018-06-22T13:05:59.127Z,1.75
2018-06-22T13:08:30.550Z,1.92
2018-06-22T13:11:03.760Z,1.60
2018-06-22T13:13:36.648Z,1.60
2018-06-22T13:16:09.947Z,1.85
2018-06-22T13:18:42.200Z,1.48
2018-06-22T13:21:15.286Z,2.10
2018-06-22T13:23:46.204Z,1.90
2018-06-22T13:26:19.291Z,3.03
2018-06-22T13:28:53.971Z,1.75
2018-06-22T13:31:24.682Z,1.85
2018-06-22T13:33:55.331Z,1.30
2018-06-22T13:36:27.157Z,1.80
2018-06-22T13:39:00.069Z,2.03
2018-06-22T13:41:30.077Z,1.85
2018-06-22T13:44:01.936Z,1.33
2018-06-22T13:46:35.129Z,1.60
2018-06-22T13:49:06.766Z,2.30
2018-06-22T13:51:39.920Z,2.15
2018-06-22T13:54:12.943Z,1.83
2018-06-22T13:56:47.451Z,2.08
2018-06-22T13:59:19.513Z,1.80
2018-06-22T14:01:50.336Z,2.03
2018-06-22T14:04:39.621Z,2.22
2018-06-22T14:07:10.997Z,2.25
2018-06-22T14:09:42.230Z,2.50
2018-06-22T14:12:13.683Z,2.00
2018-06-22T14:14:45.072Z,2.40
2018-06-22T14:17:18.335Z,2.35
2018-06-22T14:19:49.824Z,2.30
2018-06-22T14:22:22.767Z,3.35
2018-06-22T14:24:54.198Z,2.83
2018-06-22T14:27:25.777Z,2.15
2018-06-22T14:29:59.263Z,2.65
2018-06-22T14:32:32.258Z,2.58
2018-06-22T14:35:05.173Z,2.58
2018-06-22T14:37:38.508Z,2.28
2018-06-22T14:40:10.053Z,2.65
2018-06-22T14:42:40.957Z,2.35
2018-06-22T14:45:14.111Z,2.47
2018-06-22T14:47:47.262Z,2.25
2018-06-22T14:50:21.855Z,1.70
2018-06-22T14:52:52.915Z,2.55
2018-06-22T14:55:40.591Z,2.08
2018-06-22T14:58:31.293Z,2.30
2018-06-22T15:01:21.890Z,2.55
2018-06-22T15:04:11.077Z,2.60
2018-06-22T15:06:59.854Z,1.98
2018-06-22T15:09:32.865Z,2.20
2018-06-22T15:12:05.888Z,2.62
2018-06-22T15:18:29.382Z,2.00
2018-06-22T15:21:09.768Z,2.30
2018-06-22T15:23:42.941Z,2.53
2018-06-22T15:26:17.091Z,2.37
2018-06-22T15:28:48.471Z,2.42
2018-06-22T15:31:18.325Z,2.72
2018-06-22T15:34:06.803Z,3.05
2018-06-22T15:36:55.160Z,3.33
2018-06-22T15:39:44.642Z,3.05
2018-06-22T15:42:33.229Z,2.60
2018-06-22T15:45:21.259Z,2.17
2018-06-22T15:48:10.437Z,2.12
2018-06-22T15:51:14.442Z,2.05
2018-06-22T15:54:04.942Z,2.37
2018-06-22T15:56:37.837Z,2.42
2018-06-22T15:59:10.687Z,2.60
2018-06-22T16:01:42.031Z,2.60
2018-06-22T16:04:15.833Z,1.85
2018-06-22T16:06:50.134Z,2.20
2018-06-22T16:09:24.514Z,3.28
2018-06-22T16:12:14.812Z,2.25
2018-06-22T16:15:05.518Z,2.45
2018-06-22T16:17:54.481Z,2.78
2018-06-22T16:20:43.843Z,2.62
2018-06-22T16:23:32.069Z,3.53
2018-06-22T16:26:21.758Z,2.90
2018-06-22T16:28:55.126Z,3.55
2018-06-22T16:31:26.455Z,3.60
2018-06-22T16:33:59.787Z,3.45
2018-06-22T16:36:32.706Z,3.47
2018-06-22T16:39:06.258Z,3.17
2018-06-22T16:41:40.027Z,3.90
2018-06-22T16:44:15.563Z,4.55
2018-06-22T16:46:47.564Z,4.50
2018-06-22T16:49:18.998Z,4.03
2018-06-22T16:51:53.237Z,3.12
2018-06-22T16:54:24.578Z,4.70
2018-06-22T16:56:57.523Z,3.70
2018-06-22T16:59:28.952Z,3.62
2018-06-22T17:02:01.809Z,3.67
2018-06-22T17:04:34.670Z,3.70
2018-06-22T17:07:23.663Z,3.58
2018-06-22T17:10:13.862Z,3.40
2018-06-22T17:13:04.272Z,4.18
2018-06-22T17:15:54.240Z,4.20
2018-06-22T17:18:43.194Z,3.45
2018-06-22T17:21:15.950Z,3.35
2018-06-22T17:23:48.016Z,3.60
2018-06-22T17:26:18.007Z,3.22
2018-06-22T17:28:49.496Z,3.55
2018-06-22T17:31:22.304Z,3.03
2018-06-22T17:33:54.524Z,3.67
2018-06-22T17:36:25.941Z,2.75
2018-06-22T17:38:58.990Z,3.05
2018-06-22T17:41:31.896Z,3.30
2018-06-22T17:44:06.209Z,3.30
2018-06-22T17:46:36.926Z,3.55
2018-06-22T17:49:10.587Z,3.40
2018-06-22T17:51:43.468Z,3.40
2018-06-22T17:54:15.933Z,3.55
2018-06-22T17:56:47.331Z,3.62
2018-06-22T17:59:34.086Z,3.65
2018-06-22T18:02:23.323Z,3.20
2018-06-22T18:05:11.904Z,4.05
2018-06-22T18:07:45.671Z,4.30
2018-06-22T18:10:36.393Z,4.28
2018-06-22T18:13:06.329Z,4.45
2018-06-22T18:15:39.241Z,3.65
2018-06-22T18:18:12.289Z,2.97
2018-06-22T18:20:43.611Z,3.47
2018-06-22T18:23:15.005Z,3.70
2018-06-22T18:25:47.303Z,4.53
2018-06-22T18:28:17.244Z,3.87
2018-06-22T18:30:48.694Z,4.18
2018-06-22T18:33:19.292Z,3.92
2018-06-22T18:35:50.776Z,3.45
2018-06-22T18:38:22.219Z,3.17
2018-06-22T18:40:57.158Z,3.10
2018-06-22T18:43:46.232Z,3.70
2018-06-22T18:46:20.593Z,3.40
2018-06-22T18:48:53.497Z,3.20
2018-06-22T18:51:24.994Z,4.12
2018-06-22T18:54:13.283Z,3.33
2018-06-22T18:57:02.597Z,3.80
2018-06-22T18:59:43.479Z,3.87
2018-06-22T19:02:32.538Z,4.50
2018-06-22T19:05:05.412Z,3.40
2018-06-22T19:07:39.783Z,3.53
2018-06-22T19:10:09.736Z,3.60
2018-06-22T19:12:42.895Z,3.90
2018-06-22T19:15:15.942Z,3.75
2018-06-22T19:17:47.355Z,4.10
2018-06-22T19:20:20.284Z,3.53
2018-06-22T19:22:51.580Z,3.58
2018-06-22T19:25:24.371Z,3.95
2018-06-22T19:27:57.234Z,3.37
2018-06-22T19:30:28.164Z,3.62
2018-06-22T19:33:00.476Z,4.20
2018-06-22T19:35:32.778Z,4.53
2018-06-22T19:38:02.748Z,5.65
2018-06-22T19:40:37.102Z,5.70
2018-06-22T19:43:09.072Z,6.05
2018-06-22T19:45:58.556Z,5.68
2018-06-22T19:48:47.390Z,5.15
2018-06-22T19:51:34.936Z,3.37
2018-06-22T19:54:08.082Z,3.92
2018-06-22T19:56:37.976Z,3.95
2018-06-22T19:59:09.376Z,4.25
2018-06-22T20:01:41.099Z,3.33
2018-06-22T20:04:12.484Z,4.78
2018-06-22T20:06:46.734Z,4.57
2018-06-22T20:09:19.446Z,4.50
2018-06-22T20:11:52.374Z,4.72
2018-06-22T20:14:24.463Z,4.45
2018-06-22T20:16:56.340Z,3.85
2018-06-22T20:19:30.823Z,4.60
2018-06-22T20:22:03.897Z,4.10
2018-06-22T20:24:53.062Z,4.15
2018-06-22T20:27:26.047Z,3.97
2018-06-22T20:30:00.440Z,4.68
2018-06-22T20:32:33.411Z,4.85
2018-06-22T20:35:21.604Z,4.20
2018-06-22T20:38:10.872Z,3.95
2018-06-22T20:41:00.346Z,5.03
2018-06-22T20:43:48.400Z,4.37
2018-06-22T20:46:37.338Z,4.28
2018-06-22T20:49:26.506Z,3.70
2018-06-22T20:51:58.885Z,4.28
2018-06-22T20:54:31.688Z,4.65
2018-06-22T20:57:03.296Z,3.95
2018-06-22T20:59:37.634Z,3.97
2018-06-22T21:02:09.291Z,4.12
2018-06-22T21:04:42.557Z,4.37
2018-06-22T21:07:15.724Z,5.12
2018-06-22T21:09:49.347Z,4.43
2018-06-22T21:12:26.253Z,3.90
2018-06-22T21:14:50.722Z,3.67
2018-06-22T21:17:24.989Z,5.25
2018-06-22T21:19:58.901Z,4.05
2018-06-22T21:22:31.945Z,4.57
2018-06-22T21:25:03.256Z,4.68
2018-06-22T21:27:52.365Z,3.90
2018-06-22T21:30:42.862Z,4.25
2018-06-22T21:33:31.827Z,4.03
2018-06-22T21:36:20.920Z,3.53
2018-06-22T21:39:06.593Z,4.30
2018-06-22T21:41:38.933Z,4.32
2018-06-22T21:44:13.550Z,4.22
2018-06-22T21:46:45.031Z,4.60
2018-06-22T21:49:17.165Z,4.82
2018-06-22T21:51:48.888Z,4.28
2018-06-22T21:54:19.566Z,4.47
2018-06-22T21:56:52.667Z,3.83
2018-06-22T21:59:24.675Z,4.60
2018-06-22T22:01:57.482Z,5.10
2018-06-22T22:04:30.988Z,5.40
2018-06-22T22:07:01.719Z,3.72
2018-06-22T22:09:46.201Z,4.90
2018-06-22T22:12:19.154Z,5.05
2018-06-22T22:14:50.480Z,4.85
2018-06-22T22:17:23.821Z,4.12
2018-06-22T22:19:53.736Z,3.97
2018-06-22T22:22:26.556Z,4.40
2018-06-22T22:24:57.917Z,4.22
2018-06-22T22:27:30.771Z,4.10
2018-06-22T22:30:03.157Z,4.20
2018-06-22T22:32:35.928Z,4.12
2018-06-22T22:35:10.379Z,3.83
2018-06-22T22:37:40.422Z,4.05
2018-06-22T22:40:12.229Z,4.62
2018-06-22T22:42:44.376Z,4.10
2018-06-22T22:45:17.217Z,4.30
2018-06-22T22:47:47.826Z,3.92
2018-06-22T22:50:20.769Z,4.30
2018-06-22T22:52:53.560Z,4.03
2018-06-22T22:55:28.241Z,4.50
2018-06-22T22:58:02.587Z,3.85
2018-06-22T23:00:35.529Z,5.07
2018-06-22T23:03:09.831Z,3.95
2018-06-22T23:05:42.831Z,4.15
2018-06-22T23:08:14.227Z,3.90
2018-06-22T23:10:45.274Z,4.32
2018-06-22T23:13:18.468Z,4.57
2018-06-22T23:15:49.894Z,4.28
2018-06-22T23:18:19.764Z,4.43
2018-06-22T23:20:52.804Z,3.97
2018-06-22T23:23:51.560Z,4.25
2018-06-22T23:26:21.647Z,4.75
2018-06-22T23:28:54.429Z,3.53
2018-06-22T23:31:27.325Z,3.20
2018-06-22T23:34:00.261Z,4.00
2018-06-22T23:36:31.728Z,4.10
2018-06-22T23:39:05.633Z,3.62
2018-06-22T23:41:39.938Z,3.60
2018-06-22T23:44:13.170Z,4.72
2018-06-22T23:46:46.009Z,4.78
2018-06-22T23:49:17.169Z,4.00
2018-06-22T23:51:51.827Z,4.20
2018-06-22T23:54:26.187Z,4.07
2018-06-22T23:57:00.831Z,3.72
2018-06-22T23:59:33.861Z,3.72
